Tanglewood, Indiana
Current Conditions -  °F | °C
As of 2:54 AM on Sunday 23 Nov 2014 (Local Time) from KFWA Reporting Station
Light Rain Light Rain  
Wind Chill: 41°   Ceiling: 9500
Heat Index: 46°   Visibility: 10mi
Dew Point: 42°   Wind: 9mph
Humidity: 86%   Direction: 210°SSW
Pressure: 29.97"   Gusts: NA
Location:  41.0925°N, 84.9712°W
Report Text: KFWA 230754Z 21008KT 10SM -RA FEW039 OVC095 08/06 A2997 RMK AO2 SLP152 P0003 T00780056
Loading
Personal Weather Stations






























Interactive Weather Map New forecast layout! Learn more

10-Day Weather Forecast

Advertisements
Track Severe Weather on mobile